Time;durP1;ratioP1;P1;durP2;ratioP2;P2;SDS_P1;SDS_P2;PMS_P1;PMS_P2;Temp;Humidity;BMP_temperature;BMP_pressure;BME280_temperature;BME280_humidity;BME280_pressure;Samples;Min_cycle;Max_cycle;Signal;HPM_P1;HPM_P2
2023/10/13 00:01:59;;;;;;;26.73;10.23;;;;;;;;;;5056196;28;20123;-90
2023/10/13 00:04:27;;;;;;;23.45;10.10;;;;;;;;;;5088690;28;20074;-90
2023/10/13 00:06:53;;;;;;;23.27;10.85;;;;;;;;;;5072531;28;20012;-90
2023/10/13 00:09:25;;;;;;;24.38;9.85;;;;;;;;;;5073014;28;20374;-90
2023/10/13 00:11:55;;;;;;;25.48;11.48;;;;;;;;;;5060460;28;20045;-84
2023/10/13 00:14:21;;;;;;;21.92;11.38;;;;;;;;;;5057308;28;20024;-86
2023/10/13 00:17:05;;;;;;;34.15;11.48;;;;;;;;;;5072975;28;20590;-86
2023/10/13 00:19:45;;;;;;;24.65;11.50;;;;;;;;;;5057410;28;20052;-86
2023/10/13 00:22:11;;;;;;;26.77;12.23;;;;;;;;;;5082369;28;20038;-86
2023/10/13 00:24:46;;;;;;;25.88;13.00;;;;;;;;;;5074497;28;20028;-86
2023/10/13 00:27:29;;;;;;;32.25;12.95;;;;;;;;;;5068409;28;20051;-86
2023/10/13 00:32:51;;;;;;;32.95;12.90;;;;;;;;;;5079340;28;20021;-86
2023/10/13 00:35:29;;;;;;;31.25;12.65;;;;;;;;;;5071072;28;20038;-82
2023/10/13 00:37:55;;;;;;;36.45;13.80;;;;;;;;;;5078348;28;20019;-83
2023/10/13 00:46:08;;;;;;;33.08;14.77;;;;;;;;;;5030503;28;20113;-83
2023/10/13 00:48:43;;;;;;;26.88;13.23;;;;;;;;;;5052287;28;20040;-84
2023/10/13 00:51:18;;;;;;;32.08;13.90;;;;;;;;;;5067026;28;20385;-84
2023/10/13 00:53:44;;;;;;;33.75;14.52;;;;;;;;;;5054462;28;20349;-83
2023/10/13 00:56:27;;;;;;;34.00;14.57;;;;;;;;;;5070485;28;20787;-84
2023/10/13 00:58:53;;;;;;;35.10;14.52;;;;;;;;;;5070806;28;20028;-84
2023/10/13 01:01:21;;;;;;;37.25;14.40;;;;;;;;;;5066824;28;20017;-83
2023/10/13 01:03:50;;;;;;;40.75;16.23;;;;;;;;;;5070873;28;20451;-84
2023/10/13 01:06:16;;;;;;;38.13;15.95;;;;;;;;;;5040135;28;20017;-84
2023/10/13 01:08:50;;;;;;;30.42;14.63;;;;;;;;;;5070558;28;20386;-83
2023/10/13 01:11:17;;;;;;;33.20;15.38;;;;;;;;;;5070595;28;20472;-84
2023/10/13 01:13:42;;;;;;;37.40;15.52;;;;;;;;;;5087116;28;20400;-84
2023/10/13 01:16:07;;;;;;;32.50;15.32;;;;;;;;;;5072421;28;20073;-83
2023/10/13 01:18:40;;;;;;;41.13;15.27;;;;;;;;;;5065650;28;20468;-83
2023/10/13 01:21:09;;;;;;;35.78;16.00;;;;;;;;;;5054433;28;20115;-83
2023/10/13 01:23:38;;;;;;;33.45;15.32;;;;;;;;;;5073810;28;20100;-83
2023/10/13 01:26:05;;;;;;;34.45;14.68;;;;;;;;;;5071963;28;20107;-83
2023/10/13 01:28:37;;;;;;;36.83;15.27;;;;;;;;;;5070292;28;20025;-84
2023/10/13 01:31:03;;;;;;;37.15;15.63;;;;;;;;;;5073310;28;20089;-84
2023/10/13 01:33:29;;;;;;;34.47;14.95;;;;;;;;;;5080480;28;20046;-83
2023/10/13 01:35:58;;;;;;;35.75;14.57;;;;;;;;;;5081582;28;20649;-84
2023/10/13 01:38:28;;;;;;;41.83;15.20;;;;;;;;;;5064133;28;20020;-83
2023/10/13 01:40:56;;;;;;;38.40;16.80;;;;;;;;;;5079370;28;20027;-83
2023/10/13 01:43:23;;;;;;;33.55;14.95;;;;;;;;;;5082590;28;20387;-86
2023/10/13 01:45:49;;;;;;;38.13;15.07;;;;;;;;;;5082023;28;20017;-83
2023/10/13 01:48:21;;;;;;;44.42;16.20;;;;;;;;;;5078644;28;20021;-83
2023/10/13 01:50:55;;;;;;;40.90;16.05;;;;;;;;;;5072919;28;20419;-84
2023/10/13 01:53:22;;;;;;;37.45;14.73;;;;;;;;;;5074850;28;20028;-83
2023/10/13 01:55:48;;;;;;;39.33;15.10;;;;;;;;;;5069957;28;20159;-83
2023/10/13 01:58:15;;;;;;;31.75;13.60;;;;;;;;;;5071419;28;20020;-84
2023/10/13 02:00:44;;;;;;;39.88;15.05;;;;;;;;;;5063767;28;20028;-83
2023/10/13 02:03:15;;;;;;;32.90;14.50;;;;;;;;;;5070975;28;20017;-84
2023/10/13 02:05:46;;;;;;;33.90;14.10;;;;;;;;;;5070173;28;20024;-84
2023/10/13 02:08:17;;;;;;;36.50;14.32;;;;;;;;;;5054092;28;20028;-84
2023/10/13 02:10:56;;;;;;;33.00;14.30;;;;;;;;;;5057389;28;20099;-83
2023/10/13 02:13:22;;;;;;;37.30;14.45;;;;;;;;;;5070994;28;20257;-84
2023/10/13 02:15:48;;;;;;;45.72;15.38;;;;;;;;;;5072386;28;20036;-84
2023/10/13 02:18:26;;;;;;;35.90;14.85;;;;;;;;;;5070514;28;20034;-84
2023/10/13 02:20:55;;;;;;;37.90;14.48;;;;;;;;;;5067105;28;20034;-84
2023/10/13 02:23:24;;;;;;;35.65;12.93;;;;;;;;;;5069906;28;20022;-84
2023/10/13 02:26:00;;;;;;;29.17;13.23;;;;;;;;;;5072112;28;20468;-84
2023/10/13 02:28:28;;;;;;;31.73;14.07;;;;;;;;;;5053887;28;20476;-84
2023/10/13 02:30:54;;;;;;;38.55;14.15;;;;;;;;;;5070984;28;20374;-84
2023/10/13 02:33:31;;;;;;;33.90;14.25;;;;;;;;;;5055586;28;20023;-84
2023/10/13 02:35:57;;;;;;;29.33;13.07;;;;;;;;;;5074575;28;20020;-83
2023/10/13 02:38:46;;;;;;;35.28;12.93;;;;;;;;;;5071495;28;20012;-84
2023/10/13 02:41:18;;;;;;;37.72;12.95;;;;;;;;;;5070586;28;20108;-83
2023/10/13 02:43:47;;;;;;;31.10;12.80;;;;;;;;;;5055207;28;20099;-84
2023/10/13 02:46:15;;;;;;;32.38;12.70;;;;;;;;;;5076152;28;20036;-83
2023/10/13 02:48:42;;;;;;;30.20;12.38;;;;;;;;;;5076631;28;20028;-84
2023/10/13 02:51:16;;;;;;;33.72;14.55;;;;;;;;;;5080233;28;20028;-85
2023/10/13 02:53:46;;;;;;;32.03;12.20;;;;;;;;;;5079434;28;20059;-84
2023/10/13 02:56:40;;;;;;;32.88;13.50;;;;;;;;;;5079608;28;20017;-84
2023/10/13 02:59:05;;;;;;;33.00;13.20;;;;;;;;;;5074040;28;20044;-87
2023/10/13 03:01:33;;;;;;;28.25;12.13;;;;;;;;;;5049927;28;20036;-86
2023/10/13 03:04:00;;;;;;;41.15;15.05;;;;;;;;;;5053051;28;20505;-90
2023/10/13 03:06:34;;;;;;;31.58;13.98;;;;;;;;;;5052905;28;20057;-83
2023/10/13 03:09:18;;;;;;;35.60;13.25;;;;;;;;;;5086801;28;20024;-84
2023/10/13 03:11:50;;;;;;;31.40;12.95;;;;;;;;;;5070136;28;20436;-83
2023/10/13 03:14:35;;;;;;;;;;;;;;;;;;5070460;28;20103;-84
2023/10/13 03:17:14;;;;;;;35.53;13.50;;;;;;;;;;5069537;28;20265;-83
2023/10/13 03:19:48;;;;;;;35.85;13.18;;;;;;;;;;5066138;28;20024;-83
2023/10/13 03:22:16;;;;;;;27.10;12.50;;;;;;;;;;5069917;28;20408;-83
2023/10/13 03:24:46;;;;;;;30.83;12.98;;;;;;;;;;5070291;28;20028;-83
2023/10/13 03:27:23;;;;;;;28.33;10.65;;;;;;;;;;5070104;28;20044;-83
2023/10/13 03:29:54;;;;;;;26.73;9.20;;;;;;;;;;5064917;28;20403;-83
2023/10/13 03:32:20;;;;;;;31.35;12.40;;;;;;;;;;5086101;28;20017;-83
2023/10/13 03:35:11;;;;;;;27.67;12.65;;;;;;;;;;5069798;28;20068;-83
2023/10/13 03:37:40;;;;;;;29.83;11.75;;;;;;;;;;5070951;28;20051;-83
2023/10/13 03:40:40;;;;;;;36.17;11.80;;;;;;;;;;5063811;28;20027;-83
2023/10/13 03:43:09;;;;;;;29.85;11.68;;;;;;;;;;5068586;28;20030;-83
2023/10/13 03:46:21;;;;;;;27.45;10.02;;;;;;;;;;5072625;28;20040;-84
2023/10/13 03:48:31;;;;;;;31.63;11.23;;;;;;;;;;5061005;28;20033;-83
2023/10/13 03:51:03;;;;;;;27.92;12.25;;;;;;;;;;5056862;28;20024;-83
2023/10/13 03:53:52;;;;;;;28.15;11.13;;;;;;;;;;5074843;28;20023;-83
2023/10/13 03:59:09;;;;;;;34.20;11.80;;;;;;;;;;5079472;28;20047;-82
2023/10/13 04:02:02;;;;;;;36.47;11.73;;;;;;;;;;5061299;28;20017;-83
2023/10/13 04:07:38;;;;;;;26.95;11.30;;;;;;;;;;5083704;28;20021;-83
2023/10/13 04:17:22;;;;;;;28.25;11.15;;;;;;;;;;5079239;28;20022;-83
2023/10/13 04:41:39;;;;;;;24.55;9.35;;;;;;;;;;5073544;28;20712;-83
2023/10/13 04:44:23;;;;;;;28.65;10.30;;;;;;;;;;5071890;28;20149;-83
2023/10/13 04:49:35;;;;;;;23.75;10.63;;;;;;;;;;5073400;28;20051;-83
2023/10/13 05:51:47;;;;;;;21.67;7.40;;;;;;;;;;5073076;28;20349;-85
2023/10/13 06:29:38;;;;;;;15.48;6.07;;;;;;;;;;5072704;28;20142;-85
2023/10/13 06:32:10;;;;;;;21.70;7.45;;;;;;;;;;5054800;28;20052;-84
2023/10/13 06:34:42;;;;;;;19.95;6.97;;;;;;;;;;5054659;28;20044;-85
2023/10/13 06:37:30;;;;;;;17.88;5.65;;;;;;;;;;5053548;28;20094;-85
2023/10/13 06:39:57;;;;;;;16.40;6.50;;;;;;;;;;5055122;28;20035;-85
2023/10/13 06:42:26;;;;;;;19.88;5.88;;;;;;;;;;5055438;28;20017;-84
2023/10/13 06:44:53;;;;;;;20.95;7.38;;;;;;;;;;5052848;28;20017;-85
2023/10/13 06:47:20;;;;;;;23.55;7.25;;;;;;;;;;5053529;28;20016;-84
2023/10/13 06:49:48;;;;;;;18.35;6.70;;;;;;;;;;5053896;28;20032;-85
2023/10/13 06:52:13;;;;;;;23.05;6.82;;;;;;;;;;5053655;28;20025;-85
2023/10/13 06:54:40;;;;;;;20.52;6.38;;;;;;;;;;5054026;28;20031;-84
2023/10/13 06:57:14;;;;;;;26.60;8.13;;;;;;;;;;5053303;28;20111;-84
2023/10/13 06:59:41;;;;;;;27.20;7.95;;;;;;;;;;5053917;28;20027;-84
2023/10/13 07:02:09;;;;;;;25.20;7.55;;;;;;;;;;5053530;28;20032;-84
2023/10/13 07:04:34;;;;;;;16.58;6.07;;;;;;;;;;5053873;28;20486;-86
2023/10/13 07:07:00;;;;;;;19.25;6.50;;;;;;;;;;5054137;28;20051;-86
2023/10/13 07:12:02;;;;;;;24.88;7.32;;;;;;;;;;5072035;28;20498;-83
2023/10/13 07:14:27;;;;;;;31.50;8.05;;;;;;;;;;5087140;28;20040;-83
2023/10/13 07:16:59;;;;;;;21.08;7.93;;;;;;;;;;5054901;28;20021;-83
2023/10/13 07:19:34;;;;;;;30.75;8.20;;;;;;;;;;5091030;28;20024;-83
2023/10/13 07:22:22;;;;;;;19.08;8.20;;;;;;;;;;5056554;28;20040;-82
2023/10/13 07:24:50;;;;;;;24.35;9.10;;;;;;;;;;5076296;28;20029;-83
2023/10/13 07:27:28;;;;;;;21.02;7.63;;;;;;;;;;5057382;28;20024;-83
2023/10/13 07:30:13;;;;;;;28.10;8.85;;;;;;;;;;5057625;28;20375;-82
2023/10/13 07:32:50;;;;;;;25.85;8.68;;;;;;;;;;5045178;28;20016;-82
2023/10/13 07:35:19;;;;;;;22.35;7.93;;;;;;;;;;5053754;28;20029;-82
2023/10/13 07:37:48;;;;;;;21.83;8.77;;;;;;;;;;5062298;28;20020;-83
2023/10/13 07:42:50;;;;;;;25.05;7.45;;;;;;;;;;5063821;28;20399;-82
2023/10/13 07:45:24;;;;;;;21.52;6.35;;;;;;;;;;5058598;28;20550;-82
2023/10/13 07:47:51;;;;;;;23.20;5.75;;;;;;;;;;5058389;28;20154;-82
2023/10/13 07:50:24;;;;;;;17.58;5.80;;;;;;;;;;5057752;28;20112;-82
2023/10/13 07:53:04;;;;;;;22.45;6.60;;;;;;;;;;5090919;28;20044;-82
2023/10/13 07:55:32;;;;;;;20.95;6.25;;;;;;;;;;5090831;28;20009;-80
2023/10/13 07:57:59;;;;;;;18.65;5.95;;;;;;;;;;5056542;28;20021;-82
2023/10/13 08:05:58;;;;;;;21.60;5.72;;;;;;;;;;5020535;28;20454;-81
2023/10/13 08:08:25;;;;;;;21.90;5.32;;;;;;;;;;5090100;28;20396;-81
2023/10/13 08:10:55;;;;;;;12.43;5.43;;;;;;;;;;5055976;28;20029;-82
2023/10/13 08:13:20;;;;;;;15.90;6.32;;;;;;;;;;5056873;28;20013;-81
2023/10/13 08:15:49;;;;;;;21.35;6.00;;;;;;;;;;5057217;28;20149;-81
2023/10/13 08:18:19;;;;;;;14.38;5.05;;;;;;;;;;5056352;28;20035;-81
2023/10/13 08:20:45;;;;;;;19.92;6.13;;;;;;;;;;5049407;28;20047;-81
2023/10/13 08:23:13;;;;;;;16.05;5.38;;;;;;;;;;5056418;28;20017;-81
2023/10/13 08:31:22;;;;;;;22.67;5.07;;;;;;;;;;5074658;28;20044;-81
2023/10/13 08:33:48;;;;;;;14.25;5.07;;;;;;;;;;5043863;28;20021;-81
2023/10/13 08:36:29;;;;;;;14.77;5.65;;;;;;;;;;5056276;28;20103;-81
2023/10/13 08:38:57;;;;;;;14.15;5.25;;;;;;;;;;5078339;28;20031;-80
2023/10/13 08:44:03;;;;;;;14.35;4.90;;;;;;;;;;5073615;28;20032;-81
2023/10/13 08:46:51;;;;;;;15.95;5.38;;;;;;;;;;5055308;28;20025;-81
2023/10/13 08:49:17;;;;;;;16.38;5.00;;;;;;;;;;5075117;28;20025;-81
2023/10/13 08:52:05;;;;;;;16.67;5.03;;;;;;;;;;5077344;28;20021;-81
2023/10/13 08:54:35;;;;;;;20.02;5.10;;;;;;;;;;5073935;28;20028;-81
2023/10/13 08:57:06;;;;;;;18.75;5.68;;;;;;;;;;5074891;28;20020;-81
2023/10/13 08:59:52;;;;;;;16.10;5.53;;;;;;;;;;5057097;28;20055;-81
2023/10/13 09:02:21;;;;;;;13.50;4.20;;;;;;;;;;5056072;28;20020;-81
2023/10/13 09:04:59;;;;;;;15.02;6.10;;;;;;;;;;5074017;28;20032;-81
2023/10/13 09:07:25;;;;;;;11.85;5.25;;;;;;;;;;5055030;28;20452;-82
2023/10/13 09:13:00;;;;;;;13.30;5.03;;;;;;;;;;5073178;28;20032;-82
2023/10/13 09:18:12;;;;;;;17.10;5.32;;;;;;;;;;5073034;28;20040;-81
2023/10/13 09:23:09;;;;;;;19.75;5.43;;;;;;;;;;5073282;28;20089;-81
2023/10/13 09:25:36;;;;;;;15.63;5.00;;;;;;;;;;5054927;28;20020;-82
2023/10/13 09:28:02;;;;;;;16.15;5.00;;;;;;;;;;5072127;28;20016;-82
2023/10/13 09:30:31;;;;;;;14.00;5.30;;;;;;;;;;5072911;28;20015;-82
2023/10/13 09:33:08;;;;;;;16.42;5.50;;;;;;;;;;5054628;28;20059;-82
2023/10/13 09:35:36;;;;;;;14.18;5.22;;;;;;;;;;5054977;28;20032;-82
2023/10/13 09:38:02;;;;;;;15.73;5.10;;;;;;;;;;5054086;28;20463;-82
2023/10/13 09:40:38;;;;;;;16.20;4.70;;;;;;;;;;5081570;28;20032;-82
2023/10/13 09:43:14;;;;;;;13.98;5.43;;;;;;;;;;5072583;28;20031;-82
2023/10/13 09:45:42;;;;;;;16.48;5.03;;;;;;;;;;5071849;28;20134;-82
2023/10/13 09:48:21;;;;;;;16.20;5.32;;;;;;;;;;5055153;28;20380;-82
2023/10/13 09:50:50;;;;;;;13.23;4.97;;;;;;;;;;5063356;28;20021;-82
2023/10/13 09:53:18;;;;;;;13.60;6.18;;;;;;;;;;5054737;28;20020;-81
2023/10/13 09:56:13;;;;;;;15.82;5.93;;;;;;;;;;5088659;28;20047;-81
2023/10/13 09:59:10;;;;;;;24.08;6.03;;;;;;;;;;5047603;28;20123;-82
2023/10/13 10:01:50;;;;;;;15.13;5.15;;;;;;;;;;5051661;28;20033;-82
2023/10/13 10:04:17;;;;;;;19.65;5.47;;;;;;;;;;5074442;28;20038;-82
2023/10/13 10:06:56;;;;;;;12.88;5.15;;;;;;;;;;5055501;28;20028;-82
2023/10/13 10:09:36;;;;;;;29.55;6.38;;;;;;;;;;5048929;28;20059;-82
2023/10/13 10:12:01;;;;;;;21.27;5.80;;;;;;;;;;5056484;28;20024;-87
2023/10/13 10:14:48;;;;;;;25.65;6.55;;;;;;;;;;5089123;28;20016;-87
2023/10/13 10:17:17;;;;;;;17.38;5.47;;;;;;;;;;5064892;28;20066;-87
2023/10/13 10:19:53;;;;;;;20.10;5.22;;;;;;;;;;5054810;28;20107;-88
2023/10/13 10:22:49;;;;;;;20.65;5.60;;;;;;;;;;5063191;28;20044;-88
2023/10/13 10:25:35;;;;;;;16.70;5.53;;;;;;;;;;5055165;28;20027;-88
2023/10/13 10:28:01;;;;;;;16.23;5.45;;;;;;;;;;5072131;28;20035;-88
2023/10/13 10:30:33;;;;;;;12.65;5.40;;;;;;;;;;5054449;28;20047;-86
2023/10/13 10:33:03;;;;;;;18.95;6.40;;;;;;;;;;5054344;28;20020;-86
2023/10/13 10:35:34;;;;;;;18.25;5.43;;;;;;;;;;5053384;28;20028;-87
2023/10/13 10:38:16;;;;;;;17.27;5.20;;;;;;;;;;5042996;28;20020;-87
2023/10/13 10:40:51;;;;;;;14.60;6.03;;;;;;;;;;5054696;28;20380;-88
2023/10/13 10:43:17;;;;;;;13.38;5.20;;;;;;;;;;5054306;28;20080;-87
2023/10/13 10:45:49;;;;;;;20.75;5.68;;;;;;;;;;5054290;28;20371;-87
2023/10/13 10:48:21;;;;;;;22.70;5.72;;;;;;;;;;5054108;28;20043;-88
2023/10/13 10:50:53;;;;;;;22.10;5.38;;;;;;;;;;5053407;28;20071;-88
2023/10/13 10:53:43;;;;;;;15.88;4.47;;;;;;;;;;5058171;28;20021;-88
2023/10/13 10:56:19;;;;;;;11.32;4.47;;;;;;;;;;5053746;28;20032;-88
2023/10/13 10:58:46;;;;;;;14.52;4.70;;;;;;;;;;5053396;28;20458;-87
2023/10/13 11:01:12;;;;;;;15.93;5.38;;;;;;;;;;5055218;28;20036;-87
2023/10/13 11:03:42;;;;;;;15.98;5.35;;;;;;;;;;5055416;28;20024;-87
2023/10/13 11:06:16;;;;;;;13.32;4.78;;;;;;;;;;5055144;28;20025;-88
2023/10/13 11:08:43;;;;;;;14.45;5.43;;;;;;;;;;5054716;28;20040;-88
2023/10/13 11:11:17;;;;;;;18.23;5.70;;;;;;;;;;5075745;28;20014;-87
2023/10/13 11:13:54;;;;;;;17.83;5.40;;;;;;;;;;5056615;28;20123;-88
2023/10/13 11:16:33;;;;;;;17.95;5.32;;;;;;;;;;5055589;28;20079;-88
2023/10/13 11:19:00;;;;;;;20.05;5.15;;;;;;;;;;5051485;28;20464;-88
2023/10/13 11:21:29;;;;;;;11.43;4.97;;;;;;;;;;5054522;28;20017;-88
2023/10/13 11:23:58;;;;;;;16.90;4.93;;;;;;;;;;5072552;28;20085;-87
2023/10/13 11:26:33;;;;;;;19.85;5.03;;;;;;;;;;5054599;28;20024;-88
2023/10/13 11:28:58;;;;;;;15.50;4.65;;;;;;;;;;5054212;28;20203;-88
2023/10/13 11:31:24;;;;;;;18.88;5.20;;;;;;;;;;5072723;28;20037;-87
2023/10/13 11:33:50;;;;;;;19.58;5.18;;;;;;;;;;5054578;28;20020;-88
2023/10/13 11:36:24;;;;;;;18.55;4.85;;;;;;;;;;5053631;28;20422;-87
2023/10/13 11:38:52;;;;;;;17.05;4.95;;;;;;;;;;5054128;28;20031;-88
2023/10/13 11:41:22;;;;;;;23.70;5.53;;;;;;;;;;5054217;28;20021;-87
2023/10/13 11:43:52;;;;;;;21.50;4.72;;;;;;;;;;5053859;28;20063;-88
2023/10/13 11:49:32;;;;;;;21.88;4.75;;;;;;;;;;5071995;28;20020;-87
2023/10/13 11:51:51;;;;;;;16.88;4.72;;;;;;;;;;5070657;28;20017;-87
2023/10/13 11:54:21;;;;;;;16.63;4.93;;;;;;;;;;5053742;28;20074;-87
2023/10/13 11:56:47;;;;;;;14.18;5.30;;;;;;;;;;5053729;28;20055;-87
2023/10/13 11:59:18;;;;;;;15.07;4.88;;;;;;;;;;5053448;28;20021;-87
2023/10/13 12:04:43;;;;;;;22.08;4.72;;;;;;;;;;5064027;28;20438;-88
2023/10/13 12:07:19;;;;;;;13.32;4.57;;;;;;;;;;5058084;28;20017;-88
2023/10/13 12:12:26;;;;;;;13.38;4.22;;;;;;;;;;5075207;28;20016;-87
2023/10/13 12:14:58;;;;;;;26.13;5.85;;;;;;;;;;5076029;28;20063;-87
2023/10/13 12:17:38;;;;;;;14.52;4.95;;;;;;;;;;5058323;28;20413;-87
2023/10/13 12:20:10;;;;;;;21.63;4.65;;;;;;;;;;5054066;28;20059;-87
2023/10/13 12:22:38;;;;;;;22.80;4.68;;;;;;;;;;5058539;28;20037;-86
2023/10/13 12:25:05;;;;;;;25.95;5.32;;;;;;;;;;5058043;28;20024;-88
2023/10/13 12:27:45;;;;;;;18.58;5.03;;;;;;;;;;5092790;28;20020;-87
2023/10/13 12:30:13;;;;;;;19.75;5.00;;;;;;;;;;5058504;28;20024;-87
2023/10/13 12:32:44;;;;;;;17.92;5.05;;;;;;;;;;5076134;28;20016;-87
2023/10/13 12:54:13;;;;;;;17.58;5.13;;;;;;;;;;5028106;28;20040;-88
2023/10/13 12:56:41;;;;;;;19.58;5.25;;;;;;;;;;5056847;28;20111;-88
2023/10/13 12:59:09;;;;;;;16.13;4.45;;;;;;;;;;5056679;28;20509;-88
2023/10/13 13:01:34;;;;;;;12.20;3.97;;;;;;;;;;5057013;28;20020;-88
2023/10/13 13:04:03;;;;;;;16.75;4.55;;;;;;;;;;5056511;28;20027;-88
2023/10/13 13:06:29;;;;;;;16.23;5.00;;;;;;;;;;5063843;28;20013;-87
2023/10/13 13:08:59;;;;;;;14.23;4.25;;;;;;;;;;5053642;28;20516;-88
2023/10/13 13:11:24;;;;;;;17.27;4.82;;;;;;;;;;5056811;28;20067;-86
2023/10/13 13:13:50;;;;;;;13.23;4.18;;;;;;;;;;5055692;28;20080;-88
2023/10/13 13:16:18;;;;;;;15.75;4.70;;;;;;;;;;5055569;28;20028;-87
2023/10/13 13:18:44;;;;;;;18.27;4.57;;;;;;;;;;5056584;28;20021;-88
2023/10/13 13:21:12;;;;;;;14.18;4.80;;;;;;;;;;5056704;28;20039;-88
2023/10/13 13:23:39;;;;;;;20.52;4.88;;;;;;;;;;5056328;28;20020;-88
2023/10/13 13:26:15;;;;;;;10.40;3.85;;;;;;;;;;5080987;28;20013;-88
2023/10/13 13:28:40;;;;;;;17.27;4.45;;;;;;;;;;5056486;28;20074;-88
2023/10/13 13:31:08;;;;;;;17.15;5.13;;;;;;;;;;5056585;28;20021;-88
2023/10/13 13:33:38;;;;;;;12.20;4.28;;;;;;;;;;5056395;28;20066;-88
2023/10/13 13:36:04;;;;;;;16.35;4.18;;;;;;;;;;5057086;28;20332;-88
2023/10/13 13:38:31;;;;;;;17.85;4.35;;;;;;;;;;5058169;28;20063;-88
2023/10/13 13:40:56;;;;;;;15.68;4.78;;;;;;;;;;5057366;28;20044;-88
2023/10/13 13:43:35;;;;;;;17.90;4.40;;;;;;;;;;5057753;28;20020;-88
2023/10/13 13:46:01;;;;;;;10.52;4.30;;;;;;;;;;5047350;28;20025;-88
2023/10/13 13:48:27;;;;;;;15.77;4.63;;;;;;;;;;5056897;28;20512;-87
2023/10/13 13:51:03;;;;;;;12.82;4.07;;;;;;;;;;5057106;28;20464;-88
2023/10/13 13:53:31;;;;;;;12.80;4.35;;;;;;;;;;5074056;28;20095;-87
2023/10/13 13:55:59;;;;;;;16.63;4.22;;;;;;;;;;5056165;28;20060;-89
2023/10/13 13:58:25;;;;;;;13.65;4.13;;;;;;;;;;5056611;28;20028;-88
2023/10/13 14:00:50;;;;;;;17.85;5.00;;;;;;;;;;5055628;28;20529;-88
2023/10/13 14:03:31;;;;;;;13.75;4.53;;;;;;;;;;5055891;28;20079;-88
2023/10/13 14:05:59;;;;;;;13.52;4.28;;;;;;;;;;5049787;28;20035;-88
2023/10/13 14:08:25;;;;;;;16.17;4.30;;;;;;;;;;5049026;28;20023;-88
2023/10/13 14:13:55;;;;;;;16.60;3.97;;;;;;;;;;5073760;28;20047;-89
2023/10/13 14:16:22;;;;;;;11.60;3.85;;;;;;;;;;5041041;28;20025;-88
2023/10/13 14:18:49;;;;;;;9.95;4.05;;;;;;;;;;5073725;28;20013;-88
2023/10/13 14:21:18;;;;;;;14.43;4.35;;;;;;;;;;5056020;28;20483;-88
2023/10/13 14:23:45;;;;;;;15.15;4.25;;;;;;;;;;5055632;28;20078;-86
2023/10/13 14:26:12;;;;;;;8.70;3.92;;;;;;;;;;5041356;28;20029;-88
2023/10/13 14:28:47;;;;;;;12.18;4.40;;;;;;;;;;5055327;28;20024;-88
2023/10/13 14:31:13;;;;;;;16.17;4.30;;;;;;;;;;5054860;28;20019;-89
2023/10/13 14:33:39;;;;;;;10.63;3.95;;;;;;;;;;5055100;28;20027;-88
2023/10/13 14:36:04;;;;;;;9.20;3.70;;;;;;;;;;5055051;28;20028;-88
2023/10/13 14:38:30;;;;;;;9.40;3.47;;;;;;;;;;5055324;28;20112;-88
2023/10/13 14:40:56;;;;;;;13.80;4.18;;;;;;;;;;5055717;28;20214;-87
2023/10/13 14:43:27;;;;;;;14.57;3.90;;;;;;;;;;5072736;28;20377;-88
2023/10/13 14:46:00;;;;;;;13.15;4.20;;;;;;;;;;5055375;28;20095;-87
2023/10/13 14:48:26;;;;;;;10.05;3.83;;;;;;;;;;5055468;28;20028;-87
2023/10/13 14:50:51;;;;;;;17.27;4.47;;;;;;;;;;5057167;28;20429;-88
2023/10/13 14:53:19;;;;;;;16.88;4.00;;;;;;;;;;5057185;28;20025;-87
2023/10/13 14:55:44;;;;;;;14.18;4.30;;;;;;;;;;5056435;28;20096;-87
2023/10/13 14:58:15;;;;;;;14.38;4.15;;;;;;;;;;5055822;28;20051;-87
2023/10/13 15:00:45;;;;;;;16.17;4.10;;;;;;;;;;5089338;28;20012;-86
2023/10/13 15:03:10;;;;;;;13.70;4.13;;;;;;;;;;5088860;28;20021;-87
2023/10/13 15:05:38;;;;;;;14.02;4.97;;;;;;;;;;5055759;28;20035;-87
2023/10/13 15:08:03;;;;;;;13.15;4.78;;;;;;;;;;5055645;28;20027;-87
2023/10/13 15:10:28;;;;;;;11.40;4.35;;;;;;;;;;5072565;28;20013;-87
2023/10/13 15:12:54;;;;;;;9.65;4.07;;;;;;;;;;5053976;28;20009;-88
2023/10/13 15:15:19;;;;;;;13.07;3.65;;;;;;;;;;5053872;28;20113;-87
2023/10/13 15:17:48;;;;;;;13.48;4.15;;;;;;;;;;5053909;28;20024;-87
2023/10/13 15:20:16;;;;;;;15.60;4.57;;;;;;;;;;5054392;28;20108;-87
2023/10/13 15:22:42;;;;;;;10.65;3.95;;;;;;;;;;5054761;28;20056;-87
2023/10/13 15:25:20;;;;;;;17.98;4.20;;;;;;;;;;5054060;28;20020;-87
2023/10/13 15:27:55;;;;;;;12.55;4.80;;;;;;;;;;5053799;28;20051;-86
2023/10/13 15:30:21;;;;;;;15.25;3.80;;;;;;;;;;5071098;28;20016;-87
2023/10/13 15:32:48;;;;;;;13.68;4.20;;;;;;;;;;5054126;28;20115;-87
2023/10/13 15:35:13;;;;;;;19.25;3.88;;;;;;;;;;5071912;28;20503;-87
2023/10/13 15:37:40;;;;;;;10.40;4.35;;;;;;;;;;5055086;28;20029;-87
2023/10/13 15:40:09;;;;;;;16.40;4.43;;;;;;;;;;5057665;28;20429;-87
2023/10/13 15:42:41;;;;;;;15.05;4.63;;;;;;;;;;5057947;28;20422;-88
2023/10/13 15:45:16;;;;;;;12.73;4.45;;;;;;;;;;5057996;28;20020;-88
2023/10/13 15:47:45;;;;;;;12.60;5.00;;;;;;;;;;5058480;28;20047;-87
2023/10/13 15:50:15;;;;;;;11.02;4.32;;;;;;;;;;5076256;28;20044;-86
2023/10/13 15:52:45;;;;;;;14.48;4.45;;;;;;;;;;5057807;28;20024;-86
2023/10/13 15:55:13;;;;;;;9.30;4.45;;;;;;;;;;5056970;28;20025;-87
2023/10/13 15:57:38;;;;;;;11.73;4.95;;;;;;;;;;5058113;28;20021;-86
2023/10/13 16:00:22;;;;;;;16.88;4.38;;;;;;;;;;5057613;28;20487;-87
2023/10/13 16:02:54;;;;;;;12.18;4.70;;;;;;;;;;5057633;28;20070;-87
2023/10/13 16:05:22;;;;;;;11.10;4.60;;;;;;;;;;5057901;28;20074;-87
2023/10/13 16:07:50;;;;;;;15.75;4.93;;;;;;;;;;5059003;28;20052;-88
2023/10/13 16:10:19;;;;;;;20.08;5.60;;;;;;;;;;5058494;28;20496;-87
2023/10/13 16:12:44;;;;;;;15.65;5.00;;;;;;;;;;5059027;28;20020;-88
2023/10/13 16:15:13;;;;;;;15.23;5.13;;;;;;;;;;5057981;28;20115;-87
2023/10/13 16:17:39;;;;;;;17.15;4.75;;;;;;;;;;5058552;28;20119;-87
2023/10/13 16:20:11;;;;;;;12.85;4.82;;;;;;;;;;5058565;28;20016;-88
2023/10/13 16:22:37;;;;;;;16.55;4.57;;;;;;;;;;5057516;28;20036;-88
2023/10/13 16:25:06;;;;;;;8.98;4.53;;;;;;;;;;5057185;28;20069;-87
2023/10/13 16:27:32;;;;;;;17.33;4.78;;;;;;;;;;5058236;28;20023;-86
2023/10/13 16:29:57;;;;;;;9.23;4.60;;;;;;;;;;5057208;28;20013;-87
2023/10/13 16:32:26;;;;;;;11.38;4.05;;;;;;;;;;5056915;28;20070;-87
2023/10/13 16:34:51;;;;;;;11.10;4.30;;;;;;;;;;5057246;28;20026;-87
2023/10/13 16:37:17;;;;;;;9.73;4.65;;;;;;;;;;5057502;28;20107;-88
2023/10/13 16:39:44;;;;;;;16.42;5.07;;;;;;;;;;5056939;28;20020;-87
2023/10/13 16:42:11;;;;;;;13.60;4.82;;;;;;;;;;5056304;28;20398;-86
2023/10/13 16:44:38;;;;;;;15.93;5.70;;;;;;;;;;5056936;28;20363;-87
2023/10/13 16:47:04;;;;;;;17.73;5.65;;;;;;;;;;5056663;28;20017;-86
2023/10/13 16:49:30;;;;;;;15.48;4.85;;;;;;;;;;5055766;28;20210;-86
2023/10/13 16:51:55;;;;;;;15.77;5.35;;;;;;;;;;5056572;28;20020;-85
2023/10/13 16:54:21;;;;;;;14.30;5.05;;;;;;;;;;5056513;28;20095;-87
2023/10/13 16:56:46;;;;;;;12.63;5.30;;;;;;;;;;5056143;28;20033;-86
2023/10/13 16:59:12;;;;;;;18.90;6.55;;;;;;;;;;5056280;28;20018;-86
2023/10/13 17:01:37;;;;;;;17.23;5.07;;;;;;;;;;5056293;28;20020;-86
2023/10/13 17:04:04;;;;;;;14.15;5.47;;;;;;;;;;5056288;28;20017;-86
2023/10/13 17:06:29;;;;;;;12.80;5.55;;;;;;;;;;5056772;28;20013;-85
2023/10/13 17:08:55;;;;;;;15.70;5.68;;;;;;;;;;5055891;28;20482;-86
2023/10/13 17:11:21;;;;;;;14.80;5.45;;;;;;;;;;5056868;28;20016;-87
2023/10/13 17:13:48;;;;;;;19.10;6.18;;;;;;;;;;5074199;28;20021;-84
2023/10/13 17:16:17;;;;;;;20.33;5.47;;;;;;;;;;5056460;28;20036;-87
2023/10/13 17:18:43;;;;;;;19.23;5.78;;;;;;;;;;5056087;28;20021;-86
2023/10/13 17:21:21;;;;;;;14.65;5.57;;;;;;;;;;5056539;28;20115;-86
2023/10/13 17:23:49;;;;;;;20.58;6.35;;;;;;;;;;5056293;28;20032;-87
2023/10/13 17:26:16;;;;;;;11.40;5.57;;;;;;;;;;5056505;28;20017;-87
2023/10/13 17:28:42;;;;;;;19.45;6.10;;;;;;;;;;5056878;28;20372;-87
2023/10/13 17:31:08;;;;;;;11.98;5.57;;;;;;;;;;5057698;28;20027;-86
2023/10/13 17:33:38;;;;;;;12.35;5.07;;;;;;;;;;5058521;28;20035;-86
2023/10/13 17:36:06;;;;;;;21.13;6.03;;;;;;;;;;5056468;28;20482;-87
2023/10/13 17:38:32;;;;;;;14.52;5.72;;;;;;;;;;5055602;28;20020;-87
2023/10/13 17:40:59;;;;;;;16.25;4.93;;;;;;;;;;5059400;28;20034;-88
2023/10/13 17:43:24;;;;;;;16.27;5.88;;;;;;;;;;5056193;28;20020;-87
2023/10/13 17:45:49;;;;;;;9.60;5.45;;;;;;;;;;5055003;28;20024;-87
2023/10/13 17:48:17;;;;;;;16.52;5.45;;;;;;;;;;5055383;28;20154;-87
2023/10/13 17:50:43;;;;;;;12.10;5.50;;;;;;;;;;5055494;28;20020;-88
2023/10/13 17:53:08;;;;;;;17.77;5.65;;;;;;;;;;5055314;28;20070;-87
2023/10/13 17:55:38;;;;;;;14.68;5.68;;;;;;;;;;5055183;28;20551;-88
2023/10/13 17:58:05;;;;;;;14.63;5.18;;;;;;;;;;5055118;28;20024;-87
2023/10/13 18:00:31;;;;;;;13.60;5.45;;;;;;;;;;5054416;28;20025;-86
2023/10/13 18:02:56;;;;;;;16.13;5.72;;;;;;;;;;5055113;28;20066;-86
2023/10/13 18:05:24;;;;;;;19.13;5.72;;;;;;;;;;5055180;28;20025;-88